sensor_id;sensor_type;location;lat;lon;timestamp;P1;durP1;ratioP1;P2;durP2;ratioP2
42714;SDS011;28351;51.480;5.706;2022-12-28T00:01:05;5.22;;;2.13;;
42714;SDS011;28351;51.480;5.706;2022-12-28T00:03:31;3.92;;;2.10;;
42714;SDS011;28351;51.480;5.706;2022-12-28T00:05:57;2.85;;;2.00;;
42714;SDS011;28351;51.480;5.706;2022-12-28T00:08:23;8.13;;;2.60;;
42714;SDS011;28351;51.480;5.706;2022-12-28T00:10:48;6.22;;;2.72;;
42714;SDS011;28351;51.480;5.706;2022-12-28T00:13:14;6.68;;;2.90;;
42714;SDS011;28351;51.480;5.706;2022-12-28T00:15:39;4.15;;;2.47;;
42714;SDS011;28351;51.480;5.706;2022-12-28T00:18:05;5.53;;;2.55;;
42714;SDS011;28351;51.480;5.706;2022-12-28T00:20:30;5.40;;;2.97;;
42714;SDS011;28351;51.480;5.706;2022-12-28T00:22:56;7.80;;;2.78;;
42714;SDS011;28351;51.480;5.706;2022-12-28T00:25:22;5.38;;;3.05;;
42714;SDS011;28351;51.480;5.706;2022-12-28T00:27:47;5.78;;;2.97;;
42714;SDS011;28351;51.480;5.706;2022-12-28T00:30:13;4.85;;;3.20;;
42714;SDS011;28351;51.480;5.706;2022-12-28T00:32:38;5.70;;;2.95;;
42714;SDS011;28351;51.480;5.706;2022-12-28T00:35:04;7.85;;;2.70;;
42714;SDS011;28351;51.480;5.706;2022-12-28T00:37:30;4.88;;;2.88;;
42714;SDS011;28351;51.480;5.706;2022-12-28T00:39:57;4.07;;;2.55;;
42714;SDS011;28351;51.480;5.706;2022-12-28T00:42:22;6.45;;;2.53;;
42714;SDS011;28351;51.480;5.706;2022-12-28T00:44:51;8.07;;;3.17;;
42714;SDS011;28351;51.480;5.706;2022-12-28T00:47:16;3.50;;;2.55;;
42714;SDS011;28351;51.480;5.706;2022-12-28T00:49:42;5.78;;;3.00;;
42714;SDS011;28351;51.480;5.706;2022-12-28T00:52:08;5.25;;;2.83;;
42714;SDS011;28351;51.480;5.706;2022-12-28T00:54:33;6.38;;;2.78;;
42714;SDS011;28351;51.480;5.706;2022-12-28T00:56:59;6.05;;;3.03;;
42714;SDS011;28351;51.480;5.706;2022-12-28T00:59:24;4.55;;;2.63;;
42714;SDS011;28351;51.480;5.706;2022-12-28T01:01:50;5.25;;;2.95;;
42714;SDS011;28351;51.480;5.706;2022-12-28T01:04:15;6.40;;;2.70;;
42714;SDS011;28351;51.480;5.706;2022-12-28T01:06:41;3.88;;;2.67;;
42714;SDS011;28351;51.480;5.706;2022-12-28T01:09:07;7.10;;;2.60;;
42714;SDS011;28351;51.480;5.706;2022-12-28T01:16:34;5.07;;;2.50;;
42714;SDS011;28351;51.480;5.706;2022-12-28T01:19:00;5.18;;;2.60;;
42714;SDS011;28351;51.480;5.706;2022-12-28T01:21:29;8.13;;;2.90;;
42714;SDS011;28351;51.480;5.706;2022-12-28T01:23:59;6.70;;;3.15;;
42714;SDS011;28351;51.480;5.706;2022-12-28T01:26:27;5.05;;;2.22;;
42714;SDS011;28351;51.480;5.706;2022-12-28T01:28:53;6.05;;;2.85;;
42714;SDS011;28351;51.480;5.706;2022-12-28T01:31:19;8.38;;;2.30;;
42714;SDS011;28351;51.480;5.706;2022-12-28T01:33:45;6.22;;;2.70;;
42714;SDS011;28351;51.480;5.706;2022-12-28T01:36:15;8.50;;;2.95;;
42714;SDS011;28351;51.480;5.706;2022-12-28T01:38:42;5.13;;;2.50;;
42714;SDS011;28351;51.480;5.706;2022-12-28T01:41:09;6.25;;;2.33;;
42714;SDS011;28351;51.480;5.706;2022-12-28T01:43:41;7.68;;;2.63;;
42714;SDS011;28351;51.480;5.706;2022-12-28T01:46:09;3.72;;;2.13;;
42714;SDS011;28351;51.480;5.706;2022-12-28T01:49:15;3.75;;;2.28;;
42714;SDS011;28351;51.480;5.706;2022-12-28T01:54:14;3.88;;;2.50;;
42714;SDS011;28351;51.480;5.706;2022-12-28T01:56:41;5.45;;;2.83;;
42714;SDS011;28351;51.480;5.706;2022-12-28T01:59:08;8.77;;;2.50;;
42714;SDS011;28351;51.480;5.706;2022-12-28T02:01:34;4.78;;;2.53;;
42714;SDS011;28351;51.480;5.706;2022-12-28T02:04:01;4.03;;;2.63;;
42714;SDS011;28351;51.480;5.706;2022-12-28T02:06:26;3.80;;;2.10;;
42714;SDS011;28351;51.480;5.706;2022-12-28T02:09:03;3.97;;;2.67;;
42714;SDS011;28351;51.480;5.706;2022-12-28T02:11:43;5.90;;;2.28;;
42714;SDS011;28351;51.480;5.706;2022-12-28T02:14:09;7.57;;;2.80;;
42714;SDS011;28351;51.480;5.706;2022-12-28T02:16:37;6.85;;;2.80;;
42714;SDS011;28351;51.480;5.706;2022-12-28T02:19:03;4.57;;;2.53;;
42714;SDS011;28351;51.480;5.706;2022-12-28T02:21:44;6.47;;;2.58;;
42714;SDS011;28351;51.480;5.706;2022-12-28T02:35:20;6.97;;;2.40;;
42714;SDS011;28351;51.480;5.706;2022-12-28T02:40:53;3.30;;;1.85;;
42714;SDS011;28351;51.480;5.706;2022-12-28T02:43:23;6.32;;;2.55;;
42714;SDS011;28351;51.480;5.706;2022-12-28T02:45:49;7.22;;;2.28;;
42714;SDS011;28351;51.480;5.706;2022-12-28T02:48:40;4.30;;;2.20;;
42714;SDS011;28351;51.480;5.706;2022-12-28T02:54:20;6.88;;;2.00;;
42714;SDS011;28351;51.480;5.706;2022-12-28T02:59:53;3.55;;;2.10;;
42714;SDS011;28351;51.480;5.706;2022-12-28T03:03:22;6.05;;;2.47;;
42714;SDS011;28351;51.480;5.706;2022-12-28T03:08:55;5.82;;;2.70;;
42714;SDS011;28351;51.480;5.706;2022-12-28T03:11:47;4.90;;;2.75;;
42714;SDS011;28351;51.480;5.706;2022-12-28T03:14:29;3.00;;;2.22;;
42714;SDS011;28351;51.480;5.706;2022-12-28T03:17:02;5.15;;;2.40;;
42714;SDS011;28351;51.480;5.706;2022-12-28T03:19:58;4.25;;;2.80;;
42714;SDS011;28351;51.480;5.706;2022-12-28T03:22:46;4.30;;;2.40;;
42714;SDS011;28351;51.480;5.706;2022-12-28T03:25:41;4.95;;;2.65;;
42714;SDS011;28351;51.480;5.706;2022-12-28T03:28:28;4.25;;;2.80;;
42714;SDS011;28351;51.480;5.706;2022-12-28T03:31:15;4.47;;;2.45;;
42714;SDS011;28351;51.480;5.706;2022-12-28T03:33:44;4.35;;;2.58;;
42714;SDS011;28351;51.480;5.706;2022-12-28T03:39:00;4.03;;;2.33;;
42714;SDS011;28351;51.480;5.706;2022-12-28T03:53:33;6.00;;;3.08;;
42714;SDS011;28351;51.480;5.706;2022-12-28T03:56:12;4.00;;;2.60;;
42714;SDS011;28351;51.480;5.706;2022-12-28T03:58:49;4.47;;;2.70;;
42714;SDS011;28351;51.480;5.706;2022-12-28T04:01:20;5.20;;;2.95;;
42714;SDS011;28351;51.480;5.706;2022-12-28T04:03:49;3.75;;;2.83;;
42714;SDS011;28351;51.480;5.706;2022-12-28T04:06:18;6.80;;;3.30;;
42714;SDS011;28351;51.480;5.706;2022-12-28T04:08:58;6.32;;;3.50;;
42714;SDS011;28351;51.480;5.706;2022-12-28T04:11:24;5.07;;;3.05;;
42714;SDS011;28351;51.480;5.706;2022-12-28T04:13:50;4.35;;;2.90;;
42714;SDS011;28351;51.480;5.706;2022-12-28T04:16:25;4.93;;;3.05;;
42714;SDS011;28351;51.480;5.706;2022-12-28T04:18:50;4.68;;;2.97;;
42714;SDS011;28351;51.480;5.706;2022-12-28T04:21:18;7.35;;;3.40;;
42714;SDS011;28351;51.480;5.706;2022-12-28T04:23:44;4.85;;;3.28;;
42714;SDS011;28351;51.480;5.706;2022-12-28T04:26:10;6.57;;;3.35;;
42714;SDS011;28351;51.480;5.706;2022-12-28T04:28:38;7.75;;;3.65;;
42714;SDS011;28351;51.480;5.706;2022-12-28T04:31:06;7.05;;;3.70;;
42714;SDS011;28351;51.480;5.706;2022-12-28T04:36:19;5.03;;;3.17;;
42714;SDS011;28351;51.480;5.706;2022-12-28T04:38:44;4.40;;;3.10;;
42714;SDS011;28351;51.480;5.706;2022-12-28T04:41:10;6.85;;;3.53;;
42714;SDS011;28351;51.480;5.706;2022-12-28T04:43:36;8.75;;;4.43;;
42714;SDS011;28351;51.480;5.706;2022-12-28T04:46:04;4.85;;;3.05;;
42714;SDS011;28351;51.480;5.706;2022-12-28T04:48:37;6.20;;;3.55;;
42714;SDS011;28351;51.480;5.706;2022-12-28T04:51:07;7.90;;;3.38;;
42714;SDS011;28351;51.480;5.706;2022-12-28T04:54:02;6.65;;;3.65;;
42714;SDS011;28351;51.480;5.706;2022-12-28T04:56:28;5.90;;;3.33;;
42714;SDS011;28351;51.480;5.706;2022-12-28T04:58:54;5.40;;;3.30;;
42714;SDS011;28351;51.480;5.706;2022-12-28T05:01:23;6.20;;;3.47;;
42714;SDS011;28351;51.480;5.706;2022-12-28T05:03:50;5.40;;;3.58;;
42714;SDS011;28351;51.480;5.706;2022-12-28T05:06:18;5.65;;;3.60;;
42714;SDS011;28351;51.480;5.706;2022-12-28T05:11:12;4.22;;;2.90;;
42714;SDS011;28351;51.480;5.706;2022-12-28T05:13:39;6.20;;;3.30;;
42714;SDS011;28351;51.480;5.706;2022-12-28T05:16:10;4.00;;;2.97;;
42714;SDS011;28351;51.480;5.706;2022-12-28T05:18:37;5.55;;;3.35;;
42714;SDS011;28351;51.480;5.706;2022-12-28T05:21:14;4.63;;;3.08;;
42714;SDS011;28351;51.480;5.706;2022-12-28T05:23:45;5.07;;;2.88;;
42714;SDS011;28351;51.480;5.706;2022-12-28T05:26:15;5.60;;;2.75;;
42714;SDS011;28351;51.480;5.706;2022-12-28T05:28:42;4.43;;;3.20;;
42714;SDS011;28351;51.480;5.706;2022-12-28T05:31:18;3.95;;;3.17;;
42714;SDS011;28351;51.480;5.706;2022-12-28T05:33:45;5.28;;;3.13;;
42714;SDS011;28351;51.480;5.706;2022-12-28T05:36:12;6.63;;;2.97;;
42714;SDS011;28351;51.480;5.706;2022-12-28T05:41:06;4.85;;;3.08;;
42714;SDS011;28351;51.480;5.706;2022-12-28T05:43:33;5.40;;;3.30;;
42714;SDS011;28351;51.480;5.706;2022-12-28T05:46:00;8.73;;;3.42;;
42714;SDS011;28351;51.480;5.706;2022-12-28T05:48:31;4.30;;;2.85;;
42714;SDS011;28351;51.480;5.706;2022-12-28T05:51:04;4.20;;;2.90;;
42714;SDS011;28351;51.480;5.706;2022-12-28T05:53:31;5.10;;;2.97;;
42714;SDS011;28351;51.480;5.706;2022-12-28T05:58:30;6.40;;;3.28;;
42714;SDS011;28351;51.480;5.706;2022-12-28T06:03:44;4.22;;;2.78;;
42714;SDS011;28351;51.480;5.706;2022-12-28T06:06:12;4.32;;;2.58;;
42714;SDS011;28351;51.480;5.706;2022-12-28T06:08:40;4.82;;;3.00;;
42714;SDS011;28351;51.480;5.706;2022-12-28T06:11:07;6.80;;;2.75;;
42714;SDS011;28351;51.480;5.706;2022-12-28T06:13:35;4.53;;;3.22;;
42714;SDS011;28351;51.480;5.706;2022-12-28T06:16:15;7.50;;;2.83;;
42714;SDS011;28351;51.480;5.706;2022-12-28T06:21:42;5.80;;;3.22;;
42714;SDS011;28351;51.480;5.706;2022-12-28T06:24:11;4.65;;;3.63;;
42714;SDS011;28351;51.480;5.706;2022-12-28T06:26:38;4.95;;;3.30;;
42714;SDS011;28351;51.480;5.706;2022-12-28T06:29:05;5.95;;;3.55;;
42714;SDS011;28351;51.480;5.706;2022-12-28T06:31:32;5.85;;;3.92;;
42714;SDS011;28351;51.480;5.706;2022-12-28T06:33:59;5.63;;;3.20;;
42714;SDS011;28351;51.480;5.706;2022-12-28T06:36:30;4.57;;;3.30;;
42714;SDS011;28351;51.480;5.706;2022-12-28T06:39:05;5.43;;;3.63;;
42714;SDS011;28351;51.480;5.706;2022-12-28T06:41:35;4.65;;;3.25;;
42714;SDS011;28351;51.480;5.706;2022-12-28T06:44:03;9.35;;;3.38;;
42714;SDS011;28351;51.480;5.706;2022-12-28T06:46:30;6.38;;;3.20;;
42714;SDS011;28351;51.480;5.706;2022-12-28T06:52:18;6.40;;;2.90;;
42714;SDS011;28351;51.480;5.706;2022-12-28T06:54:43;5.97;;;3.00;;
42714;SDS011;28351;51.480;5.706;2022-12-28T06:57:09;3.42;;;2.65;;
42714;SDS011;28351;51.480;5.706;2022-12-28T06:59:35;3.92;;;2.97;;
42714;SDS011;28351;51.480;5.706;2022-12-28T07:02:00;4.05;;;3.10;;
42714;SDS011;28351;51.480;5.706;2022-12-28T07:04:26;5.70;;;2.65;;
42714;SDS011;28351;51.480;5.706;2022-12-28T07:06:51;3.35;;;2.30;;
42714;SDS011;28351;51.480;5.706;2022-12-28T07:09:17;4.85;;;2.67;;
42714;SDS011;28351;51.480;5.706;2022-12-28T07:11:43;3.65;;;2.65;;
42714;SDS011;28351;51.480;5.706;2022-12-28T07:14:09;5.47;;;2.75;;
42714;SDS011;28351;51.480;5.706;2022-12-28T07:16:36;5.70;;;2.63;;
42714;SDS011;28351;51.480;5.706;2022-12-28T07:19:02;3.45;;;2.50;;
42714;SDS011;28351;51.480;5.706;2022-12-28T07:21:29;5.90;;;3.00;;
42714;SDS011;28351;51.480;5.706;2022-12-28T07:24:00;3.47;;;2.38;;
42714;SDS011;28351;51.480;5.706;2022-12-28T07:26:27;2.90;;;2.17;;
42714;SDS011;28351;51.480;5.706;2022-12-28T07:28:55;3.97;;;2.28;;
42714;SDS011;28351;51.480;5.706;2022-12-28T07:31:22;3.63;;;2.53;;
42714;SDS011;28351;51.480;5.706;2022-12-28T07:33:50;2.30;;;2.10;;
42714;SDS011;28351;51.480;5.706;2022-12-28T07:36:18;3.10;;;2.10;;
42714;SDS011;28351;51.480;5.706;2022-12-28T07:38:44;5.35;;;2.38;;
42714;SDS011;28351;51.480;5.706;2022-12-28T07:41:25;3.42;;;1.98;;
42714;SDS011;28351;51.480;5.706;2022-12-28T07:43:52;5.13;;;2.40;;
42714;SDS011;28351;51.480;5.706;2022-12-28T07:46:19;3.83;;;2.90;;
42714;SDS011;28351;51.480;5.706;2022-12-28T07:48:49;3.72;;;2.83;;
42714;SDS011;28351;51.480;5.706;2022-12-28T07:51:20;3.70;;;2.40;;
42714;SDS011;28351;51.480;5.706;2022-12-28T07:53:51;3.70;;;2.60;;
42714;SDS011;28351;51.480;5.706;2022-12-28T07:56:18;3.38;;;2.25;;
42714;SDS011;28351;51.480;5.706;2022-12-28T07:58:51;5.18;;;2.90;;
42714;SDS011;28351;51.480;5.706;2022-12-28T08:01:20;3.38;;;2.40;;
42714;SDS011;28351;51.480;5.706;2022-12-28T08:04:00;4.15;;;2.55;;
42714;SDS011;28351;51.480;5.706;2022-12-28T08:06:28;8.52;;;2.70;;
42714;SDS011;28351;51.480;5.706;2022-12-28T08:09:03;4.93;;;2.53;;
42714;SDS011;28351;51.480;5.706;2022-12-28T08:12:14;6.22;;;2.50;;
42714;SDS011;28351;51.480;5.706;2022-12-28T08:24:25;4.95;;;2.70;;
42714;SDS011;28351;51.480;5.706;2022-12-28T08:27:20;3.20;;;2.42;;
42714;SDS011;28351;51.480;5.706;2022-12-28T08:29:45;4.60;;;2.90;;
42714;SDS011;28351;51.480;5.706;2022-12-28T08:32:11;5.13;;;3.10;;
42714;SDS011;28351;51.480;5.706;2022-12-28T08:34:37;7.35;;;2.97;;
42714;SDS011;28351;51.480;5.706;2022-12-28T08:37:02;5.60;;;2.80;;
42714;SDS011;28351;51.480;5.706;2022-12-28T08:39:28;4.18;;;3.00;;
42714;SDS011;28351;51.480;5.706;2022-12-28T08:41:53;5.30;;;3.00;;
42714;SDS011;28351;51.480;5.706;2022-12-28T08:44:19;6.07;;;3.22;;
42714;SDS011;28351;51.480;5.706;2022-12-28T08:46:44;3.35;;;2.85;;
42714;SDS011;28351;51.480;5.706;2022-12-28T08:49:10;6.40;;;2.90;;
42714;SDS011;28351;51.480;5.706;2022-12-28T08:51:37;5.95;;;2.90;;
42714;SDS011;28351;51.480;5.706;2022-12-28T08:54:05;4.47;;;2.42;;
42714;SDS011;28351;51.480;5.706;2022-12-28T08:56:33;4.72;;;2.85;;
42714;SDS011;28351;51.480;5.706;2022-12-28T08:59:00;5.40;;;2.33;;
42714;SDS011;28351;51.480;5.706;2022-12-28T09:01:30;6.07;;;2.40;;
42714;SDS011;28351;51.480;5.706;2022-12-28T09:03:59;6.68;;;2.83;;
42714;SDS011;28351;51.480;5.706;2022-12-28T09:06:32;4.55;;;2.30;;
42714;SDS011;28351;51.480;5.706;2022-12-28T09:09:02;3.97;;;2.75;;
42714;SDS011;28351;51.480;5.706;2022-12-28T09:11:29;5.07;;;2.30;;
42714;SDS011;28351;51.480;5.706;2022-12-28T09:13:55;3.03;;;2.40;;
42714;SDS011;28351;51.480;5.706;2022-12-28T09:16:21;4.05;;;2.80;;
42714;SDS011;28351;51.480;5.706;2022-12-28T09:18:53;2.70;;;2.22;;
42714;SDS011;28351;51.480;5.706;2022-12-28T09:21:21;5.07;;;2.40;;
42714;SDS011;28351;51.480;5.706;2022-12-28T09:23:49;6.55;;;2.30;;
42714;SDS011;28351;51.480;5.706;2022-12-28T09:26:18;3.17;;;2.50;;
42714;SDS011;28351;51.480;5.706;2022-12-28T09:28:46;4.38;;;2.45;;
42714;SDS011;28351;51.480;5.706;2022-12-28T09:31:13;5.40;;;2.47;;
42714;SDS011;28351;51.480;5.706;2022-12-28T09:33:39;3.22;;;2.40;;
42714;SDS011;28351;51.480;5.706;2022-12-28T09:38:53;5.47;;;2.72;;
42714;SDS011;28351;51.480;5.706;2022-12-28T09:43:51;6.53;;;3.40;;
42714;SDS011;28351;51.480;5.706;2022-12-28T09:46:39;4.38;;;2.83;;
42714;SDS011;28351;51.480;5.706;2022-12-28T09:49:15;4.53;;;2.97;;
42714;SDS011;28351;51.480;5.706;2022-12-28T09:51:52;5.57;;;2.75;;
42714;SDS011;28351;51.480;5.706;2022-12-28T09:54:21;4.35;;;2.47;;
42714;SDS011;28351;51.480;5.706;2022-12-28T09:56:46;3.67;;;2.35;;
42714;SDS011;28351;51.480;5.706;2022-12-28T09:59:15;4.07;;;2.80;;
42714;SDS011;28351;51.480;5.706;2022-12-28T10:01:46;7.07;;;2.42;;
42714;SDS011;28351;51.480;5.706;2022-12-28T10:04:19;8.23;;;3.50;;
42714;SDS011;28351;51.480;5.706;2022-12-28T10:06:44;5.85;;;2.72;;
42714;SDS011;28351;51.480;5.706;2022-12-28T10:09:11;4.93;;;2.83;;
42714;SDS011;28351;51.480;5.706;2022-12-28T10:11:46;4.28;;;2.30;;
42714;SDS011;28351;51.480;5.706;2022-12-28T10:14:19;5.28;;;2.47;;
42714;SDS011;28351;51.480;5.706;2022-12-28T10:16:51;3.80;;;2.55;;
42714;SDS011;28351;51.480;5.706;2022-12-28T10:19:21;3.80;;;2.50;;
42714;SDS011;28351;51.480;5.706;2022-12-28T10:21:51;4.10;;;2.90;;
42714;SDS011;28351;51.480;5.706;2022-12-28T10:24:20;4.47;;;2.40;;
42714;SDS011;28351;51.480;5.706;2022-12-28T10:26:48;5.32;;;3.00;;
42714;SDS011;28351;51.480;5.706;2022-12-28T10:29:26;4.20;;;2.70;;
42714;SDS011;28351;51.480;5.706;2022-12-28T10:32:19;4.90;;;2.65;;
42714;SDS011;28351;51.480;5.706;2022-12-28T10:40:57;4.60;;;3.05;;
42714;SDS011;28351;51.480;5.706;2022-12-28T10:43:30;3.38;;;2.83;;
42714;SDS011;28351;51.480;5.706;2022-12-28T10:45:58;4.50;;;2.75;;
42714;SDS011;28351;51.480;5.706;2022-12-28T10:48:35;5.13;;;2.97;;
42714;SDS011;28351;51.480;5.706;2022-12-28T10:53:48;5.18;;;2.78;;
42714;SDS011;28351;51.480;5.706;2022-12-28T10:56:19;6.15;;;3.20;;
42714;SDS011;28351;51.480;5.706;2022-12-28T10:58:53;3.97;;;2.65;;
42714;SDS011;28351;51.480;5.706;2022-12-28T11:01:39;7.35;;;3.10;;
42714;SDS011;28351;51.480;5.706;2022-12-28T11:04:16;7.20;;;3.13;;
42714;SDS011;28351;51.480;5.706;2022-12-28T11:09:23;5.00;;;2.53;;
42714;SDS011;28351;51.480;5.706;2022-12-28T11:11:52;3.63;;;2.53;;
42714;SDS011;28351;51.480;5.706;2022-12-28T11:16:50;5.65;;;3.25;;
42714;SDS011;28351;51.480;5.706;2022-12-28T11:19:17;5.43;;;2.95;;
42714;SDS011;28351;51.480;5.706;2022-12-28T11:21:43;5.57;;;2.58;;
42714;SDS011;28351;51.480;5.706;2022-12-28T11:24:13;6.53;;;3.13;;
42714;SDS011;28351;51.480;5.706;2022-12-28T11:26:49;5.75;;;2.75;;
42714;SDS011;28351;51.480;5.706;2022-12-28T11:29:16;4.25;;;2.88;;
42714;SDS011;28351;51.480;5.706;2022-12-28T11:31:52;4.30;;;2.78;;
42714;SDS011;28351;51.480;5.706;2022-12-28T11:34:30;3.72;;;2.67;;
42714;SDS011;28351;51.480;5.706;2022-12-28T11:36:56;4.07;;;2.28;;
42714;SDS011;28351;51.480;5.706;2022-12-28T11:44:21;4.60;;;2.88;;
42714;SDS011;28351;51.480;5.706;2022-12-28T11:49:40;5.78;;;2.75;;
42714;SDS011;28351;51.480;5.706;2022-12-28T11:54:49;4.78;;;2.50;;
42714;SDS011;28351;51.480;5.706;2022-12-28T12:02:49;4.55;;;2.60;;
42714;SDS011;28351;51.480;5.706;2022-12-28T12:10:38;5.70;;;2.75;;
42714;SDS011;28351;51.480;5.706;2022-12-28T12:16:02;3.40;;;2.10;;
42714;SDS011;28351;51.480;5.706;2022-12-28T12:18:35;3.35;;;1.63;;
42714;SDS011;28351;51.480;5.706;2022-12-28T12:21:18;3.80;;;2.20;;
42714;SDS011;28351;51.480;5.706;2022-12-28T12:24:00;3.20;;;1.80;;
42714;SDS011;28351;51.480;5.706;2022-12-28T12:26:54;2.70;;;1.70;;
42714;SDS011;28351;51.480;5.706;2022-12-28T12:29:26;4.05;;;1.80;;
42714;SDS011;28351;51.480;5.706;2022-12-28T12:32:06;2.30;;;1.95;;
42714;SDS011;28351;51.480;5.706;2022-12-28T12:34:46;8.07;;;2.03;;
42714;SDS011;28351;51.480;5.706;2022-12-28T12:51:24;4.32;;;1.70;;
42714;SDS011;28351;51.480;5.706;2022-12-28T12:56:55;6.45;;;1.77;;
42714;SDS011;28351;51.480;5.706;2022-12-28T13:05:00;3.72;;;1.60;;
42714;SDS011;28351;51.480;5.706;2022-12-28T13:07:27;2.90;;;1.55;;
42714;SDS011;28351;51.480;5.706;2022-12-28T13:09:54;3.05;;;1.40;;
42714;SDS011;28351;51.480;5.706;2022-12-28T13:12:24;2.58;;;1.63;;
42714;SDS011;28351;51.480;5.706;2022-12-28T13:14:56;2.50;;;1.90;;
42714;SDS011;28351;51.480;5.706;2022-12-28T13:17:26;6.10;;;2.08;;
42714;SDS011;28351;51.480;5.706;2022-12-28T13:22:45;2.92;;;1.73;;
42714;SDS011;28351;51.480;5.706;2022-12-28T13:25:33;3.60;;;1.55;;
42714;SDS011;28351;51.480;5.706;2022-12-28T13:28:01;3.17;;;1.60;;
42714;SDS011;28351;51.480;5.706;2022-12-28T13:30:28;3.67;;;1.40;;
42714;SDS011;28351;51.480;5.706;2022-12-28T13:32:55;5.47;;;1.65;;
42714;SDS011;28351;51.480;5.706;2022-12-28T13:35:33;5.72;;;1.55;;
42714;SDS011;28351;51.480;5.706;2022-12-28T13:38:00;4.80;;;1.45;;
42714;SDS011;28351;51.480;5.706;2022-12-28T13:40:37;5.43;;;2.22;;
42714;SDS011;28351;51.480;5.706;2022-12-28T13:46:01;3.40;;;1.50;;
42714;SDS011;28351;51.480;5.706;2022-12-28T13:51:12;1.23;;;1.13;;
42714;SDS011;28351;51.480;5.706;2022-12-28T13:56:08;2.45;;;1.30;;
42714;SDS011;28351;51.480;5.706;2022-12-28T13:58:43;3.38;;;1.85;;
42714;SDS011;28351;51.480;5.706;2022-12-28T14:01:20;2.55;;;1.20;;
42714;SDS011;28351;51.480;5.706;2022-12-28T14:03:48;4.22;;;1.55;;
42714;SDS011;28351;51.480;5.706;2022-12-28T14:06:22;2.90;;;1.30;;
42714;SDS011;28351;51.480;5.706;2022-12-28T14:08:49;5.13;;;1.73;;
42714;SDS011;28351;51.480;5.706;2022-12-28T14:11:15;3.20;;;1.67;;
42714;SDS011;28351;51.480;5.706;2022-12-28T14:13:44;4.65;;;1.88;;
42714;SDS011;28351;51.480;5.706;2022-12-28T14:16:11;2.55;;;1.70;;
42714;SDS011;28351;51.480;5.706;2022-12-28T14:18:37;2.45;;;1.55;;
42714;SDS011;28351;51.480;5.706;2022-12-28T14:21:06;7.97;;;1.92;;
42714;SDS011;28351;51.480;5.706;2022-12-28T14:23:33;4.50;;;1.80;;
42714;SDS011;28351;51.480;5.706;2022-12-28T14:26:02;6.40;;;1.60;;
42714;SDS011;28351;51.480;5.706;2022-12-28T14:28:43;2.47;;;1.50;;
42714;SDS011;28351;51.480;5.706;2022-12-28T14:33:50;4.15;;;1.45;;
42714;SDS011;28351;51.480;5.706;2022-12-28T14:36:19;4.20;;;1.48;;
42714;SDS011;28351;51.480;5.706;2022-12-28T14:39:05;8.82;;;1.63;;
42714;SDS011;28351;51.480;5.706;2022-12-28T14:41:44;4.10;;;1.40;;
42714;SDS011;28351;51.480;5.706;2022-12-28T14:44:14;7.25;;;1.60;;
42714;SDS011;28351;51.480;5.706;2022-12-28T14:46:45;4.57;;;1.60;;
42714;SDS011;28351;51.480;5.706;2022-12-28T14:54:44;5.38;;;1.58;;
42714;SDS011;28351;51.480;5.706;2022-12-28T14:57:34;5.47;;;1.73;;
42714;SDS011;28351;51.480;5.706;2022-12-28T15:00:29;4.65;;;2.03;;
42714;SDS011;28351;51.480;5.706;2022-12-28T15:03:16;4.90;;;1.40;;
42714;SDS011;28351;51.480;5.706;2022-12-28T15:05:59;2.67;;;1.40;;
42714;SDS011;28351;51.480;5.706;2022-12-28T15:08:33;3.47;;;1.90;;
42714;SDS011;28351;51.480;5.706;2022-12-28T15:11:01;2.63;;;1.38;;
42714;SDS011;28351;51.480;5.706;2022-12-28T15:13:28;8.25;;;1.85;;
42714;SDS011;28351;51.480;5.706;2022-12-28T15:15:58;1.92;;;1.30;;
42714;SDS011;28351;51.480;5.706;2022-12-28T15:18:25;4.53;;;2.00;;
42714;SDS011;28351;51.480;5.706;2022-12-28T15:20:52;4.05;;;1.50;;
42714;SDS011;28351;51.480;5.706;2022-12-28T15:23:18;4.07;;;2.15;;
42714;SDS011;28351;51.480;5.706;2022-12-28T15:25:44;4.03;;;1.58;;
42714;SDS011;28351;51.480;5.706;2022-12-28T15:28:10;3.50;;;1.70;;
42714;SDS011;28351;51.480;5.706;2022-12-28T15:30:42;4.32;;;1.75;;
42714;SDS011;28351;51.480;5.706;2022-12-28T15:33:09;2.88;;;1.40;;
42714;SDS011;28351;51.480;5.706;2022-12-28T15:35:35;6.40;;;1.95;;
42714;SDS011;28351;51.480;5.706;2022-12-28T15:38:00;2.95;;;1.70;;
42714;SDS011;28351;51.480;5.706;2022-12-28T15:40:27;3.17;;;1.52;;
42714;SDS011;28351;51.480;5.706;2022-12-28T15:42:53;6.13;;;2.28;;
42714;SDS011;28351;51.480;5.706;2022-12-28T15:45:18;3.00;;;1.60;;
42714;SDS011;28351;51.480;5.706;2022-12-28T15:47:44;3.60;;;1.77;;
42714;SDS011;28351;51.480;5.706;2022-12-28T15:50:10;5.88;;;1.60;;
42714;SDS011;28351;51.480;5.706;2022-12-28T15:52:36;5.55;;;1.60;;
42714;SDS011;28351;51.480;5.706;2022-12-28T15:55:02;2.38;;;1.52;;
42714;SDS011;28351;51.480;5.706;2022-12-28T15:57:28;2.28;;;1.50;;
42714;SDS011;28351;51.480;5.706;2022-12-28T15:59:53;4.85;;;1.77;;
42714;SDS011;28351;51.480;5.706;2022-12-28T16:02:19;4.85;;;2.38;;
42714;SDS011;28351;51.480;5.706;2022-12-28T16:04:49;11.63;;;5.05;;
42714;SDS011;28351;51.480;5.706;2022-12-28T16:09:40;2.33;;;1.50;;
42714;SDS011;28351;51.480;5.706;2022-12-28T16:12:06;2.88;;;1.60;;
42714;SDS011;28351;51.480;5.706;2022-12-28T16:14:32;5.53;;;2.13;;
42714;SDS011;28351;51.480;5.706;2022-12-28T16:19:26;4.80;;;1.80;;
42714;SDS011;28351;51.480;5.706;2022-12-28T16:21:52;4.95;;;2.33;;
42714;SDS011;28351;51.480;5.706;2022-12-28T16:24:18;4.65;;;2.00;;
42714;SDS011;28351;51.480;5.706;2022-12-28T16:26:44;4.53;;;1.58;;
42714;SDS011;28351;51.480;5.706;2022-12-28T16:29:10;3.17;;;2.17;;
42714;SDS011;28351;51.480;5.706;2022-12-28T16:31:36;6.13;;;2.85;;
42714;SDS011;28351;51.480;5.706;2022-12-28T16:34:04;4.80;;;2.20;;
42714;SDS011;28351;51.480;5.706;2022-12-28T16:36:32;6.45;;;2.85;;
42714;SDS011;28351;51.480;5.706;2022-12-28T16:38:58;3.65;;;2.35;;
42714;SDS011;28351;51.480;5.706;2022-12-28T16:41:25;4.15;;;2.40;;
42714;SDS011;28351;51.480;5.706;2022-12-28T16:43:51;3.15;;;1.80;;
42714;SDS011;28351;51.480;5.706;2022-12-28T16:46:25;2.92;;;2.40;;
42714;SDS011;28351;51.480;5.706;2022-12-28T16:48:50;2.97;;;2.05;;
42714;SDS011;28351;51.480;5.706;2022-12-28T16:51:16;4.28;;;2.35;;
42714;SDS011;28351;51.480;5.706;2022-12-28T16:53:42;6.85;;;2.60;;
42714;SDS011;28351;51.480;5.706;2022-12-28T16:56:08;6.53;;;2.22;;
42714;SDS011;28351;51.480;5.706;2022-12-28T16:58:34;4.72;;;1.95;;
42714;SDS011;28351;51.480;5.706;2022-12-28T17:01:07;5.97;;;2.47;;
42714;SDS011;28351;51.480;5.706;2022-12-28T17:03:34;2.92;;;2.35;;
42714;SDS011;28351;51.480;5.706;2022-12-28T17:06:01;2.90;;;2.00;;
42714;SDS011;28351;51.480;5.706;2022-12-28T17:08:27;3.30;;;1.92;;
42714;SDS011;28351;51.480;5.706;2022-12-28T17:10:53;5.65;;;2.72;;
42714;SDS011;28351;51.480;5.706;2022-12-28T17:13:19;4.55;;;2.28;;
42714;SDS011;28351;51.480;5.706;2022-12-28T17:15:47;5.20;;;2.15;;
42714;SDS011;28351;51.480;5.706;2022-12-28T17:18:12;3.13;;;1.75;;
42714;SDS011;28351;51.480;5.706;2022-12-28T17:20:38;3.13;;;2.08;;
42714;SDS011;28351;51.480;5.706;2022-12-28T17:23:05;3.72;;;2.10;;
42714;SDS011;28351;51.480;5.706;2022-12-28T17:25:31;4.18;;;2.03;;
42714;SDS011;28351;51.480;5.706;2022-12-28T17:27:58;3.35;;;2.30;;
42714;SDS011;28351;51.480;5.706;2022-12-28T17:30:24;4.32;;;2.42;;
42714;SDS011;28351;51.480;5.706;2022-12-28T17:32:50;4.30;;;2.17;;
42714;SDS011;28351;51.480;5.706;2022-12-28T17:35:16;4.25;;;2.13;;
42714;SDS011;28351;51.480;5.706;2022-12-28T17:37:41;3.53;;;2.63;;
42714;SDS011;28351;51.480;5.706;2022-12-28T17:40:07;6.03;;;2.47;;
42714;SDS011;28351;51.480;5.706;2022-12-28T17:42:33;3.15;;;2.13;;
42714;SDS011;28351;51.480;5.706;2022-12-28T17:44:59;7.63;;;4.30;;
42714;SDS011;28351;51.480;5.706;2022-12-28T17:47:25;5.60;;;2.40;;
42714;SDS011;28351;51.480;5.706;2022-12-28T17:49:51;6.78;;;3.10;;